createdAt,value
2022-12-08T10:37:58.364Z,100216.41
2022-12-08T10:43:01.064Z,100214.06
2022-12-08T10:48:05.855Z,100219.84
2022-12-08T10:53:15.347Z,100224.41
2022-12-08T10:58:29.557Z,100222.81
2022-12-08T11:03:35.241Z,100230.06
2022-12-08T11:08:48.140Z,100219.97
2022-12-08T11:13:52.185Z,100224.16
2022-12-08T11:18:59.134Z,100224.91
2022-12-08T11:24:21.196Z,100221.31
2022-12-08T11:29:24.063Z,100214.16
2022-12-08T11:34:38.062Z,100220.34
2022-12-08T11:39:48.557Z,100220.22
2022-12-08T11:44:56.112Z,100225.81
2022-12-08T11:50:08.355Z,100223.09
2022-12-08T11:55:27.647Z,100219.09
2022-12-08T12:00:30.153Z,100221.72
2022-12-08T12:06:46.508Z,100218.47
2022-12-08T12:11:34.327Z,100221.06
2022-12-08T12:16:58.715Z,100221.19
2022-12-08T12:22:13.683Z,100224.97
2022-12-08T12:27:28.839Z,100231.94
2022-12-08T12:32:44.239Z,100229.47
2022-12-08T12:37:47.874Z,100224.94
2022-12-08T12:43:24.788Z,100225.31
2022-12-08T12:48:28.318Z,100220.66
2022-12-08T12:53:51.726Z,100223.50
2022-12-08T12:58:55.911Z,100230.25
2022-12-08T13:04:07.175Z,100227.78
2022-12-08T13:09:21.669Z,100221.84
2022-12-08T13:14:36.825Z,100224.94
2022-12-08T13:19:40.946Z,100221.59
2022-12-08T13:24:43.840Z,100226.59
2022-12-08T13:30:26.100Z,100235.56
2022-12-08T13:35:29.198Z,100236.88
2022-12-08T13:40:35.401Z,100237.25
2022-12-08T13:46:52.552Z,100259.66
2022-12-08T13:57:05.137Z,100260.69
2022-12-08T14:02:21.561Z,100263.00
2022-12-08T14:07:24.777Z,100275.06
2022-12-08T14:12:28.911Z,100276.25
2022-12-08T14:17:33.454Z,100290.97
2022-12-08T14:22:37.980Z,100281.94
2022-12-08T14:27:40.732Z,100276.25
2022-12-08T14:32:48.846Z,100275.94
2022-12-08T14:37:55.318Z,100283.44
2022-12-08T14:43:13.548Z,100308.06
2022-12-08T14:48:26.526Z,100318.44
2022-12-08T14:53:36.749Z,100319.84
2022-12-08T14:58:39.435Z,100315.59
2022-12-08T15:03:50.433Z,100318.94
2022-12-08T15:08:58.584Z,100323.06
2022-12-08T15:14:01.467Z,100340.69
2022-12-08T15:19:16.953Z,100341.44
2022-12-08T15:24:26.418Z,100354.09
2022-12-08T15:29:31.298Z,100354.97
2022-12-08T15:34:37.075Z,100351.22
2022-12-08T15:39:39.908Z,100352.59
2022-12-08T15:44:42.663Z,100362.94
2022-12-08T15:49:47.345Z,100364.34
2022-12-08T15:54:50.071Z,100372.97
2022-12-08T15:59:53.458Z,100370.59
2022-12-08T16:05:40.408Z,100379.34
2022-12-08T16:10:23.160Z,100384.72
2022-12-08T16:34:42.441Z,100402.00
2022-12-08T16:39:46.287Z,100410.25
2022-12-08T16:44:48.942Z,100417.44
2022-12-08T16:49:53.372Z,100421.06
2022-12-08T16:54:56.217Z,100422.44
2022-12-08T16:59:59.415Z,100428.25
2022-12-08T17:05:03.917Z,100431.13
2022-12-08T17:10:09.042Z,100429.56
2022-12-08T17:15:15.371Z,100435.22
2022-12-08T17:20:21.311Z,100441.38
2022-12-08T17:25:24.492Z,100431.88
2022-12-08T17:30:27.407Z,100445.53
2022-12-08T17:35:32.030Z,100449.81
2022-12-08T17:40:34.922Z,100446.22
2022-12-08T17:45:42.661Z,100432.28
2022-12-08T17:50:47.899Z,100433.97
2022-12-08T17:55:54.786Z,100441.84
2022-12-08T18:00:59.228Z,100446.00
2022-12-08T18:06:07.205Z,100442.91
2022-12-08T18:11:15.526Z,100446.00
2022-12-08T18:16:20.046Z,100444.53
2022-12-08T18:21:24.725Z,100440.13
2022-12-08T18:26:27.668Z,100431.34
2022-12-08T18:31:30.953Z,100434.06
2022-12-08T18:36:35.820Z,100427.78
2022-12-08T18:41:38.794Z,100432.09
2022-12-08T18:46:44.333Z,100437.63
2022-12-08T18:51:48.724Z,100439.53
2022-12-08T18:56:52.868Z,100435.88
2022-12-08T19:01:57.053Z,100425.16
2022-12-08T19:07:02.749Z,100428.16
2022-12-08T19:12:05.916Z,100433.56
2022-12-08T19:17:10.251Z,100424.69
2022-12-08T19:22:14.779Z,100433.16
2022-12-08T19:27:18.554Z,100428.25
2022-12-08T19:32:21.671Z,100438.88
2022-12-08T19:37:25.845Z,100440.84
2022-12-08T19:42:45.959Z,100438.72
2022-12-08T19:47:49.321Z,100445.75
2022-12-08T19:52:53.981Z,100450.03
2022-12-08T19:57:57.148Z,100459.88
2022-12-08T20:03:02.087Z,100464.44
2022-12-08T20:08:09.486Z,100474.91
2022-12-08T20:13:30.364Z,100474.13
2022-12-08T20:18:36.312Z,100478.53
2022-12-08T20:23:41.808Z,100476.06
2022-12-08T20:28:46.044Z,100475.59
2022-12-08T20:33:49.548Z,100470.97
2022-12-08T20:39:02.263Z,100483.41
2022-12-08T20:44:07.099Z,100474.00
2022-12-08T20:49:11.087Z,100474.16
2022-12-08T20:54:17.699Z,100480.50
2022-12-08T20:59:23.841Z,100487.63
2022-12-08T21:04:27.745Z,100483.50
2022-12-08T21:09:34.394Z,100486.34
2022-12-08T21:14:40.449Z,100489.59
2022-12-08T21:19:46.477Z,100484.13
2022-12-08T21:24:51.798Z,100492.94
2022-12-08T21:29:56.284Z,100492.94
2022-12-08T21:35:00.244Z,100500.88
2022-12-08T21:40:06.297Z,100496.69
2022-12-08T21:45:11.537Z,100500.81
2022-12-08T21:50:19.961Z,100496.69
2022-12-08T21:55:31.964Z,100504.63
2022-12-08T22:00:37.160Z,100504.03
2022-12-08T22:05:40.189Z,100511.63
2022-12-08T22:10:48.876Z,100504.91
2022-12-08T22:15:57.510Z,100502.78
2022-12-08T22:21:00.835Z,100495.31
2022-12-08T22:26:06.374Z,100497.09
2022-12-08T22:31:11.539Z,100500.06
2022-12-08T22:36:17.431Z,100498.38
2022-12-08T22:41:22.766Z,100509.13
2022-12-08T22:46:28.296Z,100498.94
2022-12-08T22:51:32.341Z,100502.25
2022-12-08T22:56:37.158Z,100507.28
2022-12-08T23:01:40.277Z,100514.00
2022-12-08T23:06:43.211Z,100514.97
2022-12-08T23:11:48.026Z,100514.28
2022-12-08T23:16:51.101Z,100508.06
2022-12-08T23:21:56.519Z,100511.06
2022-12-08T23:27:05.577Z,100505.91
2022-12-08T23:32:09.885Z,100499.34
2022-12-08T23:37:13.429Z,100508.91
2022-12-08T23:42:18.537Z,100496.59
2022-12-08T23:47:22.582Z,100500.59
2022-12-08T23:52:25.704Z,100501.56
2022-12-08T23:57:31.013Z,100506.44
